sensor_id;sensor_type;location;lat;lon;timestamp;P1;durP1;ratioP1;P2;durP2;ratioP2
67090;SDS011;54007;55.818;49.058;2023-05-23T09:40:35;56.97;;;35.47;;
67090;SDS011;54007;55.818;49.058;2023-05-23T09:43:02;109.72;;;68.15;;
67090;SDS011;54007;55.818;49.058;2023-05-23T09:45:30;94.35;;;66.12;;
67090;SDS011;54007;55.818;49.058;2023-05-23T09:47:55;115.87;;;76.07;;
67090;SDS011;54007;55.818;49.058;2023-05-23T09:50:21;108.20;;;72.45;;
67090;SDS011;54007;55.818;49.058;2023-05-23T09:52:47;30.00;;;17.12;;
67090;SDS011;54007;55.818;49.058;2023-05-23T09:55:13;84.23;;;56.93;;
67090;SDS011;54007;55.818;49.058;2023-05-23T09:57:39;100.67;;;67.90;;
67090;SDS011;54007;55.818;49.058;2023-05-23T10:00:05;98.77;;;67.87;;
67090;SDS011;54007;55.818;49.058;2023-05-23T10:02:38;66.57;;;42.08;;
67090;SDS011;54007;55.818;49.058;2023-05-23T10:04:57;81.87;;;54.10;;
67090;SDS011;54007;55.818;49.058;2023-05-23T10:07:23;92.65;;;60.40;;
67090;SDS011;54007;55.818;49.058;2023-05-23T10:09:55;72.13;;;51.30;;
67090;SDS011;54007;55.818;49.058;2023-05-23T10:14:56;70.45;;;48.55;;
67090;SDS011;54007;55.818;49.058;2023-05-23T10:17:25;54.25;;;36.80;;
67090;SDS011;54007;55.818;49.058;2023-05-23T10:19:51;81.40;;;55.20;;
67090;SDS011;54007;55.818;49.058;2023-05-23T10:22:13;80.55;;;51.60;;
67090;SDS011;54007;55.818;49.058;2023-05-23T10:24:39;67.17;;;42.30;;
67090;SDS011;54007;55.818;49.058;2023-05-23T10:27:05;78.50;;;51.50;;
67090;SDS011;54007;55.818;49.058;2023-05-23T10:29:31;34.58;;;22.22;;
67090;SDS011;54007;55.818;49.058;2023-05-23T10:31:57;74.77;;;52.40;;
67090;SDS011;54007;55.818;49.058;2023-05-23T10:34:35;68.28;;;48.75;;
67090;SDS011;54007;55.818;49.058;2023-05-23T10:37:01;62.90;;;45.78;;
67090;SDS011;54007;55.818;49.058;2023-05-23T10:39:35;72.30;;;48.42;;
67090;SDS011;54007;55.818;49.058;2023-05-23T10:41:59;69.77;;;49.63;;
67090;SDS011;54007;55.818;49.058;2023-05-23T10:44:30;63.75;;;48.17;;
67090;SDS011;54007;55.818;49.058;2023-05-23T10:46:57;66.50;;;47.88;;
67090;SDS011;54007;55.818;49.058;2023-05-23T10:49:37;54.03;;;35.63;;
67090;SDS011;54007;55.818;49.058;2023-05-23T10:52:02;54.43;;;40.07;;
67090;SDS011;54007;55.818;49.058;2023-05-23T10:54:33;51.10;;;37.53;;
67090;SDS011;54007;55.818;49.058;2023-05-23T10:57:03;36.83;;;25.82;;
67090;SDS011;54007;55.818;49.058;2023-05-23T10:59:29;61.40;;;43.68;;
67090;SDS011;54007;55.818;49.058;2023-05-23T11:01:55;47.97;;;32.57;;
67090;SDS011;54007;55.818;49.058;2023-05-23T11:04:24;59.60;;;40.83;;
67090;SDS011;54007;55.818;49.058;2023-05-23T11:06:49;44.10;;;29.37;;
67090;SDS011;54007;55.818;49.058;2023-05-23T11:09:16;25.53;;;14.87;;
67090;SDS011;54007;55.818;49.058;2023-05-23T11:14:19;34.23;;;19.75;;
67090;SDS011;54007;55.818;49.058;2023-05-23T11:16:44;40.60;;;25.23;;
67090;SDS011;54007;55.818;49.058;2023-05-23T11:21:46;35.60;;;19.52;;
67090;SDS011;54007;55.818;49.058;2023-05-23T11:24:11;45.67;;;27.50;;
67090;SDS011;54007;55.818;49.058;2023-05-23T11:26:37;44.98;;;33.40;;
67090;SDS011;54007;55.818;49.058;2023-05-23T11:29:03;44.35;;;30.92;;
67090;SDS011;54007;55.818;49.058;2023-05-23T11:31:28;38.50;;;29.13;;
67090;SDS011;54007;55.818;49.058;2023-05-23T11:33:54;46.65;;;33.23;;
67090;SDS011;54007;55.818;49.058;2023-05-23T11:36:20;40.33;;;27.40;;
67090;SDS011;54007;55.818;49.058;2023-05-23T11:38:46;30.25;;;15.83;;
67090;SDS011;54007;55.818;49.058;2023-05-23T11:41:12;25.90;;;16.10;;
67090;SDS011;54007;55.818;49.058;2023-05-23T11:43:47;22.97;;;13.93;;
67090;SDS011;54007;55.818;49.058;2023-05-23T11:46:07;31.95;;;18.40;;
67090;SDS011;54007;55.818;49.058;2023-05-23T11:48:32;36.45;;;22.48;;
67090;SDS011;54007;55.818;49.058;2023-05-23T11:50:58;33.40;;;15.93;;
67090;SDS011;54007;55.818;49.058;2023-05-23T11:53:25;36.03;;;22.95;;
67090;SDS011;54007;55.818;49.058;2023-05-23T11:55:51;34.83;;;25.72;;
67090;SDS011;54007;55.818;49.058;2023-05-23T11:58:16;27.70;;;19.13;;
67090;SDS011;54007;55.818;49.058;2023-05-23T12:00:42;37.70;;;24.95;;
67090;SDS011;54007;55.818;49.058;2023-05-23T12:03:07;38.87;;;25.57;;
67090;SDS011;54007;55.818;49.058;2023-05-23T12:05:33;26.25;;;15.25;;
67090;SDS011;54007;55.818;49.058;2023-05-23T12:07:59;32.83;;;22.07;;
67090;SDS011;54007;55.818;49.058;2023-05-23T12:10:29;41.13;;;29.87;;
67090;SDS011;54007;55.818;49.058;2023-05-23T12:13:01;40.33;;;29.85;;
67090;SDS011;54007;55.818;49.058;2023-05-23T12:15:27;39.45;;;27.87;;
67090;SDS011;54007;55.818;49.058;2023-05-23T12:17:53;25.53;;;16.47;;
67090;SDS011;54007;55.818;49.058;2023-05-23T12:20:19;34.78;;;26.77;;
67090;SDS011;54007;55.818;49.058;2023-05-23T12:22:45;33.23;;;24.87;;
67090;SDS011;54007;55.818;49.058;2023-05-23T12:25:11;36.47;;;27.33;;
67090;SDS011;54007;55.818;49.058;2023-05-23T12:27:38;29.15;;;16.73;;
67090;SDS011;54007;55.818;49.058;2023-05-23T12:30:15;32.60;;;21.70;;
67090;SDS011;54007;55.818;49.058;2023-05-23T12:32:41;24.47;;;13.75;;
67090;SDS011;54007;55.818;49.058;2023-05-23T13:32:34;32.25;;;20.50;;
67090;SDS011;54007;55.818;49.058;2023-05-23T13:35:06;29.15;;;20.77;;
67090;SDS011;54007;55.818;49.058;2023-05-23T13:37:32;25.20;;;13.77;;
67090;SDS011;54007;55.818;49.058;2023-05-23T13:40:00;25.40;;;13.40;;
67090;SDS011;54007;55.818;49.058;2023-05-23T13:42:24;24.55;;;15.90;;
67090;SDS011;54007;55.818;49.058;2023-05-23T13:44:50;23.80;;;11.30;;
67090;SDS011;54007;55.818;49.058;2023-05-23T13:47:16;28.05;;;16.32;;
67090;SDS011;54007;55.818;49.058;2023-05-23T13:49:42;21.20;;;13.83;;
67090;SDS011;54007;55.818;49.058;2023-05-23T13:52:08;24.67;;;12.13;;
67090;SDS011;54007;55.818;49.058;2023-05-23T13:54:33;27.50;;;17.05;;
67090;SDS011;54007;55.818;49.058;2023-05-23T13:56:59;32.13;;;18.20;;
67090;SDS011;54007;55.818;49.058;2023-05-23T13:59:25;21.62;;;14.83;;
67090;SDS011;54007;55.818;49.058;2023-05-23T14:01:51;22.40;;;12.43;;
67090;SDS011;54007;55.818;49.058;2023-05-23T14:04:17;23.10;;;13.23;;
67090;SDS011;54007;55.818;49.058;2023-05-23T14:06:42;21.50;;;12.10;;
67090;SDS011;54007;55.818;49.058;2023-05-23T14:09:08;21.17;;;12.17;;
67090;SDS011;54007;55.818;49.058;2023-05-23T14:11:34;26.95;;;12.55;;
67090;SDS011;54007;55.818;49.058;2023-05-23T14:14:00;22.48;;;16.17;;
67090;SDS011;54007;55.818;49.058;2023-05-23T14:16:26;21.63;;;14.17;;
67090;SDS011;54007;55.818;49.058;2023-05-23T14:18:52;24.10;;;16.32;;
67090;SDS011;54007;55.818;49.058;2023-05-23T14:21:18;22.62;;;15.98;;
67090;SDS011;54007;55.818;49.058;2023-05-23T14:23:43;30.73;;;12.27;;
67090;SDS011;54007;55.818;49.058;2023-05-23T14:26:09;23.60;;;16.30;;
67090;SDS011;54007;55.818;49.058;2023-05-23T14:28:35;21.68;;;12.33;;
67090;SDS011;54007;55.818;49.058;2023-05-23T14:31:01;24.00;;;11.93;;
67090;SDS011;54007;55.818;49.058;2023-05-23T14:33:27;19.07;;;12.03;;
67090;SDS011;54007;55.818;49.058;2023-05-23T14:35:53;25.03;;;17.67;;
67090;SDS011;54007;55.818;49.058;2023-05-23T14:38:19;26.12;;;18.10;;
67090;SDS011;54007;55.818;49.058;2023-05-23T14:40:44;22.52;;;16.55;;
67090;SDS011;54007;55.818;49.058;2023-05-23T14:43:10;24.20;;;14.57;;
67090;SDS011;54007;55.818;49.058;2023-05-23T14:45:36;25.37;;;16.93;;
67090;SDS011;54007;55.818;49.058;2023-05-23T14:48:03;23.83;;;16.93;;
67090;SDS011;54007;55.818;49.058;2023-05-23T14:50:32;19.63;;;13.37;;
67090;SDS011;54007;55.818;49.058;2023-05-23T14:53:05;27.25;;;17.70;;
67090;SDS011;54007;55.818;49.058;2023-05-23T14:55:30;19.12;;;11.57;;
67090;SDS011;54007;55.818;49.058;2023-05-23T14:57:56;21.50;;;14.57;;
67090;SDS011;54007;55.818;49.058;2023-05-23T15:00:22;19.42;;;13.83;;
67090;SDS011;54007;55.818;49.058;2023-05-23T15:02:48;19.60;;;12.33;;
67090;SDS011;54007;55.818;49.058;2023-05-23T15:05:14;22.98;;;16.57;;
67090;SDS011;54007;55.818;49.058;2023-05-23T15:07:40;23.25;;;13.55;;
67090;SDS011;54007;55.818;49.058;2023-05-23T15:10:06;23.03;;;16.13;;
67090;SDS011;54007;55.818;49.058;2023-05-23T15:12:32;26.50;;;11.97;;
67090;SDS011;54007;55.818;49.058;2023-05-23T15:14:57;21.80;;;15.25;;
67090;SDS011;54007;55.818;49.058;2023-05-23T15:17:23;20.07;;;12.73;;
67090;SDS011;54007;55.818;49.058;2023-05-23T15:19:49;22.32;;;16.02;;
67090;SDS011;54007;55.818;49.058;2023-05-23T15:22:15;19.32;;;10.98;;
67090;SDS011;54007;55.818;49.058;2023-05-23T15:24:41;25.70;;;14.87;;
67090;SDS011;54007;55.818;49.058;2023-05-23T15:27:07;22.15;;;14.63;;
67090;SDS011;54007;55.818;49.058;2023-05-23T15:29:33;24.75;;;13.05;;
67090;SDS011;54007;55.818;49.058;2023-05-23T15:31:59;23.00;;;12.73;;
67090;SDS011;54007;55.818;49.058;2023-05-23T15:34:24;25.55;;;11.83;;
67090;SDS011;54007;55.818;49.058;2023-05-23T15:36:50;24.27;;;12.30;;
67090;SDS011;54007;55.818;49.058;2023-05-23T15:39:16;21.68;;;12.95;;
67090;SDS011;54007;55.818;49.058;2023-05-23T15:41:42;21.77;;;11.20;;
67090;SDS011;54007;55.818;49.058;2023-05-23T15:44:08;25.20;;;11.18;;
67090;SDS011;54007;55.818;49.058;2023-05-23T15:46:34;24.10;;;11.13;;
67090;SDS011;54007;55.818;49.058;2023-05-23T15:49:00;32.30;;;11.40;;
67090;SDS011;54007;55.818;49.058;2023-05-23T15:51:26;33.10;;;13.07;;
67090;SDS011;54007;55.818;49.058;2023-05-23T15:53:51;23.15;;;11.15;;
67090;SDS011;54007;55.818;49.058;2023-05-23T15:56:17;17.73;;;9.83;;
67090;SDS011;54007;55.818;49.058;2023-05-23T15:58:43;24.13;;;11.33;;
67090;SDS011;54007;55.818;49.058;2023-05-23T16:01:09;28.25;;;10.90;;
67090;SDS011;54007;55.818;49.058;2023-05-23T16:03:36;25.85;;;10.90;;
67090;SDS011;54007;55.818;49.058;2023-05-23T16:06:03;25.12;;;10.63;;
67090;SDS011;54007;55.818;49.058;2023-05-23T16:08:28;32.10;;;10.63;;
67090;SDS011;54007;55.818;49.058;2023-05-23T16:11:00;26.85;;;10.00;;
67090;SDS011;54007;55.818;49.058;2023-05-23T16:13:26;31.90;;;10.38;;
67090;SDS011;54007;55.818;49.058;2023-05-23T16:15:52;31.90;;;10.23;;
67090;SDS011;54007;55.818;49.058;2023-05-23T16:18:18;33.00;;;10.72;;
67090;SDS011;54007;55.818;49.058;2023-05-23T16:20:43;26.33;;;10.53;;
67090;SDS011;54007;55.818;49.058;2023-05-23T16:23:09;25.72;;;11.12;;
67090;SDS011;54007;55.818;49.058;2023-05-23T16:25:35;25.77;;;11.55;;
67090;SDS011;54007;55.818;49.058;2023-05-23T16:28:01;24.53;;;11.33;;
67090;SDS011;54007;55.818;49.058;2023-05-23T16:30:27;23.40;;;10.32;;
67090;SDS011;54007;55.818;49.058;2023-05-23T16:32:53;29.13;;;10.57;;
67090;SDS011;54007;55.818;49.058;2023-05-23T16:35:19;27.52;;;10.15;;
67090;SDS011;54007;55.818;49.058;2023-05-23T16:37:45;47.40;;;12.35;;
67090;SDS011;54007;55.818;49.058;2023-05-23T16:40:11;33.55;;;13.93;;
67090;SDS011;54007;55.818;49.058;2023-05-23T16:42:36;28.20;;;11.63;;
67090;SDS011;54007;55.818;49.058;2023-05-23T16:45:03;26.85;;;11.68;;
67090;SDS011;54007;55.818;49.058;2023-05-23T16:47:28;29.15;;;11.35;;
67090;SDS011;54007;55.818;49.058;2023-05-23T16:49:54;27.40;;;11.37;;
67090;SDS011;54007;55.818;49.058;2023-05-23T16:52:20;30.85;;;11.45;;
67090;SDS011;54007;55.818;49.058;2023-05-23T16:54:46;37.58;;;11.35;;
67090;SDS011;54007;55.818;49.058;2023-05-23T16:57:12;26.00;;;11.33;;
67090;SDS011;54007;55.818;49.058;2023-05-23T16:59:38;31.97;;;12.33;;
67090;SDS011;54007;55.818;49.058;2023-05-23T17:02:03;38.30;;;12.07;;
67090;SDS011;54007;55.818;49.058;2023-05-23T17:04:29;37.85;;;12.33;;
67090;SDS011;54007;55.818;49.058;2023-05-23T17:06:55;41.20;;;12.82;;
67090;SDS011;54007;55.818;49.058;2023-05-23T17:09:21;36.63;;;12.90;;
67090;SDS011;54007;55.818;49.058;2023-05-23T17:11:47;39.40;;;12.93;;
67090;SDS011;54007;55.818;49.058;2023-05-23T17:14:13;45.00;;;13.07;;
67090;SDS011;54007;55.818;49.058;2023-05-23T17:16:38;34.85;;;13.30;;
67090;SDS011;54007;55.818;49.058;2023-05-23T17:19:04;30.70;;;11.83;;
67090;SDS011;54007;55.818;49.058;2023-05-23T17:21:30;31.10;;;11.93;;
67090;SDS011;54007;55.818;49.058;2023-05-23T17:23:56;50.28;;;13.30;;
67090;SDS011;54007;55.818;49.058;2023-05-23T17:26:22;30.20;;;13.25;;
67090;SDS011;54007;55.818;49.058;2023-05-23T17:28:53;26.57;;;12.17;;
67090;SDS011;54007;55.818;49.058;2023-05-23T17:31:19;36.30;;;13.08;;
67090;SDS011;54007;55.818;49.058;2023-05-23T17:33:45;30.48;;;12.85;;
67090;SDS011;54007;55.818;49.058;2023-05-23T17:36:11;35.23;;;12.30;;
67090;SDS011;54007;55.818;49.058;2023-05-23T17:38:37;33.30;;;12.47;;
67090;SDS011;54007;55.818;49.058;2023-05-23T17:41:03;31.77;;;12.95;;
67090;SDS011;54007;55.818;49.058;2023-05-23T17:43:28;28.67;;;11.90;;
67090;SDS011;54007;55.818;49.058;2023-05-23T17:45:55;35.17;;;12.15;;
